Time;durP1;ratioP1;P1;durP2;ratioP2;P2;SDS_P1;SDS_P2;PMS_P1;PMS_P2;Temp;Humidity;BMP_temperature;BMP_pressure;BME280_temperature;BME280_humidity;BME280_pressure;Samples;Min_cycle;Max_cycle;Signal;HPM_P1;HPM_P2
2020/12/25 00:00:51;;;;;;;5.43;2.70;;;4.40;99.90;;;;;;7036504;27;20920;-69
2020/12/25 00:04:11;;;;;;;4.85;2.80;;;4.40;99.90;;;;;;7064378;27;20393;-68
2020/12/25 00:07:32;;;;;;;5.00;2.70;;;4.40;99.90;;;;;;7041976;27;20402;-69
2020/12/25 00:10:54;;;;;;;6.10;2.70;;;4.40;99.90;;;;;;7034160;27;20401;-71
2020/12/25 00:14:15;;;;;;;5.57;2.72;;;4.50;99.90;;;;;;7058092;27;20407;-71
2020/12/25 00:17:36;;;;;;;5.77;2.70;;;4.50;99.90;;;;;;7037167;27;20425;-71
2020/12/25 00:20:57;;;;;;;5.13;2.70;;;4.50;99.90;;;;;;7029961;27;20784;-70
2020/12/25 00:24:17;;;;;;;4.67;2.90;;;4.50;99.90;;;;;;7036353;27;20383;-71
2020/12/25 00:27:38;;;;;;;4.40;2.60;;;4.50;99.90;;;;;;7042499;27;20444;-71
2020/12/25 00:30:59;;;;;;;4.60;2.42;;;4.50;99.90;;;;;;7044886;27;20411;-71
2020/12/25 00:34:20;;;;;;;4.70;2.60;;;4.60;99.90;;;;;;7030398;27;20427;-71
2020/12/25 00:37:41;;;;;;;4.90;2.40;;;4.60;99.90;;;;;;7064617;27;20401;-71
2020/12/25 00:41:02;;;;;;;4.10;2.30;;;4.60;99.90;;;;;;7047290;27;20399;-71
2020/12/25 00:44:23;;;;;;;6.30;2.40;;;4.60;99.90;;;;;;7034004;27;20502;-70
2020/12/25 00:47:43;;;;;;;4.45;2.35;;;4.60;99.90;;;;;;7044261;27;20406;-70
2020/12/25 00:51:10;;;;;;;4.93;2.50;;;4.60;99.90;;;;;;7050856;27;20478;-70
2020/12/25 00:54:31;;;;;;;4.88;2.60;;;4.50;99.90;;;;;;7032297;27;20413;-69
2020/12/25 00:57:59;;;;;;;5.25;2.55;;;4.50;99.90;;;;;;7025426;27;20721;-69
2020/12/25 01:01:21;;;;;;;4.80;2.70;;;4.50;99.90;;;;;;7010086;27;20421;-69
2020/12/25 01:04:42;;;;;;;4.70;2.30;;;4.40;99.90;;;;;;7052900;27;20691;-69
2020/12/25 01:08:03;;;;;;;5.28;2.70;;;4.40;99.90;;;;;;7037008;27;20939;-70
2020/12/25 01:11:25;;;;;;;5.40;2.22;;;4.40;99.90;;;;;;7058292;27;20948;-69
2020/12/25 01:14:46;;;;;;;5.10;2.30;;;4.50;99.90;;;;;;7029985;27;20403;-69
2020/12/25 01:18:08;;;;;;;5.87;2.40;;;4.60;99.90;;;;;;7037320;27;20408;-69
2020/12/25 01:21:28;;;;;;;4.80;2.50;;;4.60;99.90;;;;;;7042157;27;20401;-71
2020/12/25 01:24:49;;;;;;;5.17;2.33;;;4.60;99.90;;;;;;7023891;28;20483;-71
2020/12/25 01:28:10;;;;;;;4.68;2.40;;;4.70;99.90;;;;;;7026093;27;20401;-70
2020/12/25 01:31:31;;;;;;;4.88;2.40;;;4.70;99.90;;;;;;7040725;27;20425;-71
2020/12/25 01:34:52;;;;;;;4.17;2.37;;;4.80;99.90;;;;;;7022020;27;20428;-70
2020/12/25 01:38:13;;;;;;;4.40;2.40;;;4.80;99.90;;;;;;7050864;27;20399;-71
2020/12/25 01:41:34;;;;;;;5.20;2.20;;;4.80;99.90;;;;;;7035772;27;20427;-71
2020/12/25 01:44:55;;;;;;;5.50;2.20;;;4.80;99.90;;;;;;7037380;27;20986;-71
2020/12/25 01:48:16;;;;;;;4.30;2.63;;;4.80;99.90;;;;;;7059509;27;20398;-70
2020/12/25 01:51:38;;;;;;;4.95;2.28;;;4.90;99.90;;;;;;7041067;27;20405;-71
2020/12/25 01:54:59;;;;;;;4.38;2.30;;;4.90;99.90;;;;;;7041109;27;20399;-71
2020/12/25 01:58:22;;;;;;;4.18;2.30;;;4.90;99.90;;;;;;7044138;27;20943;-71
2020/12/25 02:01:42;;;;;;;6.05;2.70;;;4.90;99.90;;;;;;7024607;27;20400;-69
2020/12/25 02:05:03;;;;;;;4.70;2.33;;;4.90;99.90;;;;;;7051246;27;20553;-69
2020/12/25 02:08:24;;;;;;;5.10;2.30;;;5.00;99.90;;;;;;7052053;27;20578;-71
2020/12/25 02:11:45;;;;;;;5.40;2.40;;;4.90;99.90;;;;;;7041064;27;20521;-71
2020/12/25 02:15:07;;;;;;;4.20;2.40;;;4.90;99.90;;;;;;7027861;27;20407;-71
2020/12/25 02:18:37;;;;;;;4.30;2.40;;;4.90;99.90;;;;;;7024767;27;20432;-70
2020/12/25 02:21:58;;;;;;;6.93;2.85;;;4.90;99.90;;;;;;7050618;27;20802;-71
2020/12/25 02:25:18;;;;;;;5.70;2.90;;;4.80;99.90;;;;;;7036263;27;20524;-71
2020/12/25 02:28:41;;;;;;;4.97;2.77;;;4.70;99.90;;;;;;7054068;27;20394;-71
2020/12/25 02:32:01;;;;;;;5.30;2.60;;;4.70;99.90;;;;;;7023773;28;20902;-70
2020/12/25 02:35:22;;;;;;;5.40;2.80;;;4.60;99.90;;;;;;7033246;27;20473;-70
2020/12/25 02:38:43;;;;;;;6.32;2.70;;;4.50;99.90;;;;;;7045880;27;20804;-70
2020/12/25 02:42:04;;;;;;;7.25;2.70;;;4.50;99.90;;;;;;7050005;27;20402;-70
2020/12/25 02:45:25;;;;;;;5.30;2.50;;;4.40;99.90;;;;;;7036332;28;20430;-71
2020/12/25 02:48:46;;;;;;;5.90;2.60;;;4.30;99.90;;;;;;7028300;27;20398;-69
2020/12/25 02:52:06;;;;;;;4.40;2.63;;;4.30;99.90;;;;;;7037728;27;20396;-69
2020/12/25 02:55:27;;;;;;;5.70;2.80;;;4.20;99.90;;;;;;7026914;27;20402;-69
2020/12/25 02:58:48;;;;;;;7.50;3.47;;;4.30;99.90;;;;;;7027090;28;20399;-68
2020/12/25 03:02:09;;;;;;;7.32;4.40;;;4.30;99.90;;;;;;7041127;27;20432;-68
2020/12/25 03:05:30;;;;;;;10.05;4.50;;;4.40;99.90;;;;;;7053009;27;20408;-68
2020/12/25 03:08:51;;;;;;;8.77;4.70;;;4.30;99.90;;;;;;7053998;27;20389;-68
2020/12/25 03:12:12;;;;;;;7.53;4.80;;;4.20;99.90;;;;;;7042796;27;20496;-68
2020/12/25 03:15:32;;;;;;;8.52;4.93;;;4.20;99.90;;;;;;7036161;27;20402;-69
2020/12/25 03:18:53;;;;;;;9.20;5.00;;;4.10;99.90;;;;;;7052507;27;20394;-68
2020/12/25 03:22:14;;;;;;;9.47;5.20;;;4.00;99.90;;;;;;7023960;28;20473;-69
2020/12/25 03:25:35;;;;;;;8.10;5.30;;;3.90;99.90;;;;;;7038419;27;20489;-69
2020/12/25 03:28:56;;;;;;;7.22;5.00;;;3.90;99.90;;;;;;7047306;27;20393;-69
2020/12/25 03:32:17;;;;;;;8.75;5.50;;;3.90;99.90;;;;;;7056104;27;20398;-69
2020/12/25 03:35:37;;;;;;;9.73;5.30;;;3.90;99.90;;;;;;7056107;27;20455;-69
2020/12/25 03:38:58;;;;;;;9.90;5.40;;;3.80;99.90;;;;;;7033310;27;20480;-69
2020/12/25 03:42:19;;;;;;;8.48;5.50;;;3.70;99.90;;;;;;7040240;27;20964;-69
2020/12/25 03:45:40;;;;;;;7.22;4.80;;;3.70;99.90;;;;;;7035983;27;20395;-69
2020/12/25 03:49:05;;;;;;;9.50;4.90;;;3.60;99.90;;;;;;7036447;27;20497;-69
2020/12/25 03:52:27;;;;;;;7.90;4.60;;;3.60;99.90;;;;;;7053356;27;20384;-68
2020/12/25 03:55:48;;;;;;;8.90;4.70;;;3.60;99.90;;;;;;7019720;27;20813;-71
2020/12/25 03:59:09;;;;;;;10.55;5.00;;;3.60;99.90;;;;;;7035584;27;20387;-71
2020/12/25 04:02:30;;;;;;;9.10;4.70;;;3.40;99.90;;;;;;7035611;27;20401;-70
2020/12/25 04:05:51;;;;;;;8.32;4.50;;;3.40;99.90;;;;;;7039142;27;20740;-70
2020/12/25 04:09:11;;;;;;;8.53;4.80;;;3.40;99.90;;;;;;7048008;27;20729;-71
2020/12/25 04:12:32;;;;;;;8.10;4.30;;;3.40;99.90;;;;;;7040064;27;20882;-70
2020/12/25 04:15:53;;;;;;;8.75;4.43;;;3.40;99.90;;;;;;7029235;27;20421;-70
2020/12/25 04:19:14;;;;;;;6.70;3.97;;;3.40;99.90;;;;;;7057709;27;20455;-68
2020/12/25 04:22:35;;;;;;;8.82;4.40;;;3.30;99.90;;;;;;7043649;27;20439;-68
2020/12/25 04:25:56;;;;;;;8.70;4.30;;;3.30;99.90;;;;;;7054379;27;20393;-68
2020/12/25 04:29:17;;;;;;;6.40;3.90;;;3.30;99.90;;;;;;7045154;27;20402;-70
2020/12/25 04:32:37;;;;;;;8.90;4.53;;;3.20;99.90;;;;;;7042251;27;20426;-69
2020/12/25 04:35:58;;;;;;;6.70;4.00;;;3.30;99.90;;;;;;7033194;27;20413;-68
2020/12/25 04:39:19;;;;;;;6.93;4.13;;;3.20;99.90;;;;;;7027031;27;20869;-69
2020/12/25 04:42:41;;;;;;;7.88;3.95;;;3.20;99.90;;;;;;7060368;27;20754;-68
2020/12/25 04:46:02;;;;;;;8.02;4.00;;;3.20;99.90;;;;;;7033227;27;20395;-68
2020/12/25 04:49:23;;;;;;;6.80;3.70;;;3.00;99.90;;;;;;7033322;27;20395;-70
2020/12/25 04:52:49;;;;;;;7.15;3.60;;;2.80;99.90;;;;;;7042816;27;20393;-69
2020/12/25 04:56:10;;;;;;;9.60;4.40;;;2.60;99.90;;;;;;7037531;27;20464;-69
2020/12/25 04:59:31;;;;;;;6.77;3.90;;;2.50;99.90;;;;;;7028396;27;20410;-69
2020/12/25 05:02:52;;;;;;;7.70;3.90;;;2.30;99.90;;;;;;7024689;28;20907;-68
2020/12/25 05:06:15;;;;;;;7.23;3.70;;;2.10;99.90;;;;;;7030107;27;20405;-69
2020/12/25 05:09:36;;;;;;;8.60;3.83;;;2.00;99.90;;;;;;7049135;27;20896;-68
2020/12/25 05:12:56;;;;;;;8.33;4.03;;;1.80;99.90;;;;;;7057271;27;20391;-67
2020/12/25 05:16:20;;;;;;;8.73;3.97;;;1.80;99.90;;;;;;7028993;27;20447;-68
2020/12/25 05:19:41;;;;;;;6.75;3.90;;;1.60;99.90;;;;;;7037787;27;20893;-68
2020/12/25 05:23:11;;;;;;;7.43;3.90;;;1.50;99.90;;;;;;7056672;27;20412;-68
2020/12/25 05:26:32;;;;;;;8.35;4.40;;;1.40;99.90;;;;;;7028789;27;20412;-68
2020/12/25 05:29:57;;;;;;;7.35;3.97;;;1.30;99.90;;;;;;7052393;27;20945;-68
2020/12/25 05:33:18;;;;;;;6.85;4.00;;;1.30;99.90;;;;;;7022975;27;20855;-68
2020/12/25 05:36:41;;;;;;;8.23;3.88;;;1.20;99.90;;;;;;7031757;27;20402;-68
2020/12/25 05:40:06;;;;;;;7.53;3.80;;;1.00;99.90;;;;;;7040567;27;20795;-69
2020/12/25 05:43:27;;;;;;;5.70;3.85;;;1.00;99.90;;;;;;7033672;27;20429;-68
2020/12/25 05:46:48;;;;;;;8.33;4.00;;;1.00;99.90;;;;;;7033107;27;20439;-68
2020/12/25 05:50:09;;;;;;;7.33;4.10;;;0.80;99.90;;;;;;7026514;27;20489;-68
2020/12/25 05:53:30;;;;;;;6.45;3.90;;;0.80;99.90;;;;;;7018943;27;20795;-68
2020/12/25 05:56:56;;;;;;;6.95;3.92;;;0.80;99.90;;;;;;7028546;27;20923;-68
2020/12/25 06:00:21;;;;;;;8.40;4.00;;;0.70;99.90;;;;;;7039442;27;20399;-68
2020/12/25 06:03:44;;;;;;;6.70;3.70;;;0.70;99.90;;;;;;7041635;27;20411;-68
2020/12/25 06:07:10;;;;;;;8.55;4.15;;;0.70;99.90;;;;;;7020257;27;20396;-68
2020/12/25 06:10:31;;;;;;;7.10;3.70;;;0.60;99.90;;;;;;7025221;27;20399;-68
2020/12/25 06:13:52;;;;;;;8.03;3.67;;;0.70;99.90;;;;;;7027155;27;20416;-69
2020/12/25 06:17:19;;;;;;;8.07;3.70;;;0.70;99.90;;;;;;7027676;27;20400;-68
2020/12/25 06:21:07;;;;;;;8.27;3.72;;;0.60;99.90;;;;;;7030152;28;20743;-69
2020/12/25 06:24:34;;;;;;;6.72;3.60;;;0.60;99.90;;;;;;7004639;27;20877;-68
2020/12/25 06:27:59;;;;;;;8.60;3.60;;;0.60;99.90;;;;;;7036896;27;20397;-68
2020/12/25 06:31:38;;;;;;;6.70;3.45;;;0.60;99.90;;;;;;7016086;27;20394;-67
2020/12/25 06:35:01;;;;;;;8.40;3.20;;;0.60;99.90;;;;;;7020449;27;20411;-67
2020/12/25 06:38:23;;;;;;;7.85;3.60;;;0.60;99.90;;;;;;7029631;27;20445;-66
2020/12/25 06:41:44;;;;;;;7.55;3.90;;;0.70;99.90;;;;;;7023709;27;20396;-69
2020/12/25 06:45:12;;;;;;;6.88;3.60;;;0.70;99.90;;;;;;7020459;27;20483;-70
2020/12/25 06:48:34;;;;;;;6.43;3.50;;;0.60;99.90;;;;;;7031887;27;20881;-67
2020/12/25 06:51:55;;;;;;;7.32;3.70;;;0.50;99.90;;;;;;7018455;27;20445;-69
2020/12/25 06:55:16;;;;;;;6.80;3.30;;;0.50;99.90;;;;;;7023943;27;20394;-69
2020/12/25 06:58:44;;;;;;;7.25;3.50;;;0.50;99.90;;;;;;7034653;27;20404;-68
2020/12/25 07:02:05;;;;;;;4.90;3.30;;;0.40;99.90;;;;;;7043125;27;20461;-68
2020/12/25 07:05:26;;;;;;;6.50;3.58;;;0.40;99.90;;;;;;7040398;27;20426;-69
2020/12/25 07:08:53;;;;;;;7.15;3.40;;;0.40;99.90;;;;;;7037705;27;20390;-70
2020/12/25 07:12:22;;;;;;;6.90;3.30;;;0.30;99.90;;;;;;7047684;27;20739;-69
2020/12/25 07:15:45;;;;;;;7.50;3.50;;;0.30;99.90;;;;;;7046386;27;20802;-69
2020/12/25 07:19:06;;;;;;;6.80;3.40;;;0.20;99.90;;;;;;7061496;27;20497;-67
2020/12/25 07:22:28;;;;;;;6.93;3.40;;;0.20;99.90;;;;;;7059775;27;20412;-68
2020/12/25 07:25:49;;;;;;;6.93;3.50;;;0.20;99.90;;;;;;7047730;27;20446;-68
2020/12/25 07:29:14;;;;;;;7.70;3.55;;;0.20;99.90;;;;;;7028265;27;20396;-68
2020/12/25 07:32:35;;;;;;;7.75;3.67;;;0.30;99.90;;;;;;7026225;27;20408;-68
2020/12/25 07:35:57;;;;;;;6.13;3.38;;;0.30;99.90;;;;;;7055757;27;20411;-70
2020/12/25 07:39:20;;;;;;;6.60;3.30;;;0.20;99.90;;;;;;7019979;27;20404;-70
2020/12/25 07:42:41;;;;;;;6.28;3.22;;;0.20;99.90;;;;;;7049641;27;20411;-67
2020/12/25 07:46:02;;;;;;;8.63;3.30;;;0.30;99.90;;;;;;7051087;27;20402;-69
2020/12/25 07:49:22;;;;;;;5.63;3.20;;;0.10;99.90;;;;;;7037761;27;20400;-71
2020/12/25 07:52:48;;;;;;;6.35;3.60;;;0.10;99.90;;;;;;7025391;27;20830;-67
2020/12/25 07:56:09;;;;;;;6.55;3.50;;;0.20;99.90;;;;;;7020544;27;20485;-69
2020/12/25 07:59:30;;;;;;;5.65;3.30;;;0.20;99.90;;;;;;7023286;27;20807;-69
2020/12/25 08:02:53;;;;;;;7.60;3.40;;;0.20;99.90;;;;;;7033657;27;20455;-68
2020/12/25 08:06:16;;;;;;;5.63;3.10;;;0.30;99.90;;;;;;7026160;27;20486;-70
2020/12/25 08:09:38;;;;;;;7.07;3.30;;;0.20;99.90;;;;;;7039513;27;20405;-69
2020/12/25 08:12:59;;;;;;;6.45;3.40;;;0.30;99.90;;;;;;7046537;27;20403;-69
2020/12/25 08:16:20;;;;;;;6.78;3.40;;;0.30;99.90;;;;;;7028047;27;20944;-70
2020/12/25 08:19:46;;;;;;;8.40;3.28;;;0.40;99.90;;;;;;7042841;27;20410;-69
2020/12/25 08:23:07;;;;;;;7.60;3.40;;;0.50;99.90;;;;;;7032725;27;20440;-68
2020/12/25 08:26:40;;;;;;;7.53;3.50;;;0.70;99.90;;;;;;7050014;27;20880;-68
2020/12/25 08:30:01;;;;;;;5.90;3.40;;;0.90;99.90;;;;;;7035400;27;20404;-70
2020/12/25 08:33:26;;;;;;;5.30;3.13;;;1.10;99.90;;;;;;7038601;27;20952;-70
2020/12/25 08:36:57;;;;;;;7.60;3.63;;;1.40;99.90;;;;;;7047064;27;20814;-70
2020/12/25 08:40:18;;;;;;;6.40;3.28;;;1.50;99.90;;;;;;7035447;27;20416;-70
2020/12/25 08:43:39;;;;;;;5.97;3.10;;;1.60;99.90;;;;;;7057759;27;20418;-69
2020/12/25 08:47:10;;;;;;;6.20;3.05;;;1.80;99.90;;;;;;7059185;27;20432;-70
2020/12/25 08:50:31;;;;;;;6.90;3.17;;;1.90;99.90;;;;;;7038187;27;20466;-70
2020/12/25 08:53:53;;;;;;;6.23;3.70;;;2.00;99.90;;;;;;7033922;27;20551;-70
2020/12/25 08:57:14;;;;;;;8.35;3.70;;;2.10;99.90;;;;;;7032444;27;20791;-68
2020/12/25 09:00:35;;;;;;;6.77;3.30;;;2.20;99.90;;;;;;7031564;27;20402;-68
2020/12/25 09:03:56;;;;;;;7.40;3.25;;;2.40;99.90;;;;;;7050264;27;20405;-69
2020/12/25 09:07:17;;;;;;;7.55;3.70;;;2.50;99.90;;;;;;7028996;27;20406;-68
2020/12/25 09:10:38;;;;;;;6.10;3.50;;;2.60;99.90;;;;;;7038283;27;20746;-69
2020/12/25 09:13:58;;;;;;;7.18;3.20;;;2.80;99.90;;;;;;7050091;27;20453;-69
2020/12/25 09:17:21;;;;;;;6.17;3.20;;;2.90;99.90;;;;;;7022489;27;20395;-68
2020/12/25 09:20:42;;;;;;;7.00;3.13;;;3.10;99.90;;;;;;7039043;27;20397;-68
2020/12/25 09:24:03;;;;;;;6.00;2.90;;;3.20;99.90;;;;;;7027160;27;20453;-69
2020/12/25 09:27:24;;;;;;;6.80;3.00;;;3.20;99.90;;;;;;7032672;27;20408;-69
2020/12/25 09:30:45;;;;;;;5.20;2.80;;;3.30;99.90;;;;;;7034041;27;20405;-69
2020/12/25 09:34:06;;;;;;;5.47;3.13;;;3.20;99.90;;;;;;7031715;27;20424;-69
2020/12/25 09:37:27;;;;;;;6.70;2.92;;;3.30;99.90;;;;;;7042386;27;20395;-68
2020/12/25 09:40:49;;;;;;;5.65;3.10;;;3.30;99.90;;;;;;7048496;27;20408;-69
2020/12/25 09:44:10;;;;;;;4.95;3.00;;;3.40;99.90;;;;;;7029632;27;20397;-69
2020/12/25 09:47:31;;;;;;;6.65;3.42;;;3.60;99.90;;;;;;7036275;27;20421;-68
2020/12/25 09:50:51;;;;;;;6.73;3.30;;;3.70;99.90;;;;;;7017142;27;20789;-69
2020/12/25 09:54:12;;;;;;;6.90;3.30;;;3.70;99.90;;;;;;7025126;27;20390;-69
2020/12/25 09:57:33;;;;;;;5.82;3.20;;;3.70;99.90;;;;;;7033585;27;20410;-69
2020/12/25 10:00:54;;;;;;;5.60;3.13;;;3.80;99.90;;;;;;7048085;27;20401;-69
2020/12/25 10:04:15;;;;;;;5.70;3.20;;;3.80;99.90;;;;;;7052138;27;20392;-67
2020/12/25 10:07:36;;;;;;;6.27;3.00;;;3.60;99.90;;;;;;7029560;27;20402;-68
2020/12/25 10:10:57;;;;;;;5.32;2.80;;;3.40;99.90;;;;;;7057422;27;20794;-69
2020/12/25 10:14:18;;;;;;;8.10;3.50;;;3.80;99.90;;;;;;7049745;27;20391;-68
2020/12/25 10:17:39;;;;;;;6.30;3.00;;;4.50;99.90;;;;;;7049306;27;20434;-69
2020/12/25 10:21:00;;;;;;;6.90;3.20;;;5.00;99.90;;;;;;7023338;27;20860;-68
2020/12/25 10:24:20;;;;;;;6.70;3.10;;;5.50;99.90;;;;;;7039308;27;20438;-68
2020/12/25 10:27:42;;;;;;;4.80;2.80;;;6.00;99.90;;;;;;7053747;27;20402;-69
2020/12/25 10:31:03;;;;;;;4.70;2.70;;;6.50;99.90;;;;;;7046173;27;20400;-68
2020/12/25 10:34:24;;;;;;;4.90;2.90;;;7.10;99.90;;;;;;7035519;27;20447;-68
2020/12/25 10:37:44;;;;;;;6.33;3.00;;;7.70;99.90;;;;;;7038226;27;20872;-68
2020/12/25 10:41:07;;;;;;;5.22;2.80;;;8.40;99.90;;;;;;7040591;27;20420;-68
2020/12/25 10:44:28;;;;;;;5.30;3.00;;;9.20;99.90;;;;;;7028041;27;20390;-68
2020/12/25 10:47:48;;;;;;;6.20;3.10;;;10.00;99.90;;;;;;7059002;27;20811;-69
2020/12/25 10:51:09;;;;;;;6.60;3.25;;;11.40;99.90;;;;;;7044479;27;20388;-69
2020/12/25 10:54:30;;;;;;;6.77;3.60;;;13.70;99.90;;;;;;7024410;27;21146;-69
2020/12/25 10:57:51;;;;;;;6.87;3.30;;;15.20;99.90;;;;;;7025472;27;20416;-69
2020/12/25 11:01:22;;;;;;;5.43;2.90;;;16.40;99.90;;;;;;7035622;27;20533;-68
2020/12/25 11:04:43;;;;;;;5.90;3.10;;;17.50;99.90;;;;;;7035086;27;20408;-68
2020/12/25 11:08:04;;;;;;;5.00;3.00;;;18.40;99.90;;;;;;7033184;27;20404;-68
2020/12/25 11:11:25;;;;;;;7.37;3.17;;;19.10;99.90;;;;;;7050375;27;20434;-67
2020/12/25 11:14:46;;;;;;;5.30;2.80;;;19.40;99.90;;;;;;7031797;27;20407;-67
2020/12/25 11:18:07;;;;;;;6.83;3.27;;;18.40;99.90;;;;;;7027394;27;20401;-68
2020/12/25 11:21:30;;;;;;;5.40;3.20;;;18.20;99.90;;;;;;7028436;28;20767;-67
2020/12/25 11:24:51;;;;;;;4.90;3.10;;;17.90;99.90;;;;;;7041431;27;20381;-67
2020/12/25 11:28:11;;;;;;;5.07;3.15;;;19.20;99.90;;;;;;7024995;27;20424;-69
2020/12/25 11:31:34;;;;;;;4.72;3.22;;;19.40;99.90;;;;;;7053629;27;20483;-67
2020/12/25 11:34:55;;;;;;;5.22;3.53;;;16.10;99.90;;;;;;7044825;27;20408;-68
2020/12/25 11:38:15;;;;;;;5.37;3.13;;;13.20;99.90;;;;;;7040023;27;20462;-67
2020/12/25 11:41:37;;;;;;;5.25;3.10;;;11.70;99.90;;;;;;7050356;27;20415;-69
2020/12/25 11:44:58;;;;;;;6.40;3.13;;;10.50;99.90;;;;;;7053138;27;20396;-67
2020/12/25 11:48:19;;;;;;;6.50;3.50;;;9.70;99.90;;;;;;7030978;27;20950;-68
2020/12/25 11:51:39;;;;;;;6.22;3.35;;;9.10;99.90;;;;;;7034990;27;20449;-67
2020/12/25 11:55:00;;;;;;;5.87;3.60;;;8.70;99.90;;;;;;7032044;27;20923;-67
2020/12/25 11:58:22;;;;;;;5.32;3.20;;;8.30;99.90;;;;;;7030571;27;20404;-68
2020/12/25 12:01:44;;;;;;;5.80;3.30;;;7.90;99.90;;;;;;7037851;27;20504;-66
2020/12/25 12:05:05;;;;;;;8.07;3.60;;;7.90;99.90;;;;;;7034867;27;20412;-67
2020/12/25 12:08:26;;;;;;;5.77;3.50;;;8.80;99.90;;;;;;7034355;27;20407;-69
2020/12/25 12:11:46;;;;;;;5.00;3.30;;;9.60;99.90;;;;;;7021761;27;20389;-69
2020/12/25 12:15:07;;;;;;;6.63;3.70;;;9.80;99.90;;;;;;7031423;27;20408;-68
2020/12/25 12:18:28;;;;;;;6.00;3.33;;;9.90;99.90;;;;;;7035913;27;20944;-70
2020/12/25 12:21:49;;;;;;;5.03;3.20;;;13.40;99.90;;;;;;7035782;27;20503;-70
2020/12/25 12:25:10;;;;;;;5.72;3.40;;;16.10;99.90;;;;;;7036614;27;20406;-70
2020/12/25 12:28:31;;;;;;;6.03;3.20;;;18.20;99.90;;;;;;7031945;27;20431;-70
2020/12/25 12:31:52;;;;;;;5.32;3.10;;;19.30;99.90;;;;;;7036567;27;20418;-70
2020/12/25 12:35:13;;;;;;;5.90;3.50;;;19.70;99.30;;;;;;7031987;27;20737;-70
2020/12/25 12:38:34;;;;;;;4.70;3.00;;;21.40;98.70;;;;;;7056675;27;20941;-70
2020/12/25 12:41:57;;;;;;;5.63;3.25;;;21.60;97.40;;;;;;7043194;27;21109;-70
2020/12/25 12:45:18;;;;;;;5.15;2.92;;;21.70;96.30;;;;;;7047050;27;20397;-69
2020/12/25 12:48:39;;;;;;;5.70;3.30;;;22.10;96.40;;;;;;7028769;27;20401;-69
2020/12/25 12:52:00;;;;;;;4.78;3.00;;;22.20;95.60;;;;;;7024589;27;20409;-69
2020/12/25 12:55:21;;;;;;;4.50;2.87;;;20.60;95.50;;;;;;7036044;27;20390;-68
2020/12/25 12:58:41;;;;;;;5.53;2.90;;;19.30;95.70;;;;;;7037267;27;20400;-69
2020/12/25 13:02:02;;;;;;;5.27;3.00;;;16.80;97.10;;;;;;7027727;27;20403;-68
2020/12/25 13:05:23;;;;;;;5.03;3.20;;;16.50;97.70;;;;;;7053871;27;20750;-69
2020/12/25 13:08:44;;;;;;;6.00;3.30;;;17.90;97.50;;;;;;7043947;27;20417;-69
2020/12/25 13:12:05;;;;;;;4.70;2.90;;;18.80;96.40;;;;;;7056091;27;20958;-69
2020/12/25 13:15:25;;;;;;;6.43;3.20;;;16.40;96.00;;;;;;7043003;27;20460;-69
2020/12/25 13:18:46;;;;;;;5.82;3.30;;;16.20;96.90;;;;;;7028374;27;20892;-68
2020/12/25 13:22:08;;;;;;;6.00;3.30;;;17.80;96.30;;;;;;7026283;27;20459;-68
2020/12/25 13:25:28;;;;;;;5.22;3.40;;;19.60;96.10;;;;;;7041569;27;20928;-68
2020/12/25 13:28:50;;;;;;;5.17;3.33;;;19.80;95.60;;;;;;7044819;27;20481;-68
2020/12/25 13:32:11;;;;;;;4.63;2.75;;;20.20;94.70;;;;;;7050382;27;20438;-68
2020/12/25 13:35:32;;;;;;;5.03;3.10;;;19.40;94.80;;;;;;7043257;27;20397;-68
2020/12/25 13:38:53;;;;;;;5.63;3.00;;;19.40;94.60;;;;;;7048927;27;20393;-68
2020/12/25 13:42:14;;;;;;;5.13;2.93;;;18.50;94.50;;;;;;7044405;27;20408;-69
2020/12/25 13:45:34;;;;;;;5.55;3.17;;;17.20;94.80;;;;;;7032303;27;20426;-67
2020/12/25 13:48:55;;;;;;;5.70;2.90;;;15.50;96.10;;;;;;7027483;27;20428;-67
2020/12/25 13:52:16;;;;;;;4.70;2.63;;;14.30;97.10;;;;;;7026456;27;20390;-68
2020/12/25 13:55:37;;;;;;;4.77;2.80;;;13.50;97.30;;;;;;7026209;27;20875;-68
2020/12/25 13:58:58;;;;;;;5.95;3.10;;;12.50;98.10;;;;;;7033781;27;20405;-67
2020/12/25 14:02:19;;;;;;;5.00;2.88;;;11.00;99.50;;;;;;7041461;27;20495;-68
2020/12/25 14:05:39;;;;;;;5.80;3.30;;;9.60;99.90;;;;;;7035310;27;20461;-68
2020/12/25 14:09:00;;;;;;;5.22;2.70;;;8.20;99.90;;;;;;7028460;27;20469;-67
2020/12/25 14:12:21;;;;;;;5.60;2.70;;;7.20;99.90;;;;;;7025391;27;20418;-69
2020/12/25 14:15:42;;;;;;;4.45;2.60;;;6.70;99.90;;;;;;7040941;27;20414;-68
2020/12/25 14:19:03;;;;;;;4.77;2.83;;;6.00;99.90;;;;;;7035875;27;20753;-69
2020/12/25 14:22:24;;;;;;;7.70;3.20;;;5.70;99.90;;;;;;7024582;27;20417;-68
2020/12/25 14:25:47;;;;;;;5.20;2.83;;;5.20;99.90;;;;;;7026903;27;20870;-69
2020/12/25 14:29:07;;;;;;;5.32;2.80;;;4.90;99.90;;;;;;7034298;28;20406;-69
2020/12/25 14:32:28;;;;;;;4.73;2.80;;;4.60;99.90;;;;;;7054679;27;20790;-70
2020/12/25 14:35:49;;;;;;;4.78;2.78;;;4.40;99.90;;;;;;7042018;27;20483;-69
2020/12/25 14:39:11;;;;;;;5.50;3.20;;;4.30;99.90;;;;;;7036986;27;20431;-68
2020/12/25 14:42:33;;;;;;;4.35;3.00;;;4.00;99.90;;;;;;7034438;27;20491;-70
2020/12/25 14:45:55;;;;;;;5.90;2.95;;;3.80;99.90;;;;;;7045294;27;20447;-71
2020/12/25 14:49:16;;;;;;;8.50;3.65;;;3.70;99.90;;;;;;7033429;27;20880;-70
2020/12/25 14:52:38;;;;;;;7.20;4.50;;;3.40;99.90;;;;;;7024610;28;20400;-71
2020/12/25 14:55:59;;;;;;;7.32;4.00;;;3.20;99.90;;;;;;7030239;27;20429;-69
2020/12/25 14:59:20;;;;;;;5.85;3.30;;;3.00;99.90;;;;;;7049577;28;20417;-69
2020/12/25 15:02:41;;;;;;;8.70;4.10;;;2.90;99.90;;;;;;7043248;27;20408;-68
2020/12/25 15:06:02;;;;;;;5.70;3.30;;;2.80;99.90;;;;;;7059760;27;20396;-68
2020/12/25 15:09:22;;;;;;;4.60;2.67;;;2.70;99.90;;;;;;7025047;27;20802;-69
2020/12/25 15:12:43;;;;;;;5.03;2.90;;;2.70;99.90;;;;;;7056472;27;20391;-69
2020/12/25 15:16:04;;;;;;;5.13;2.83;;;2.50;99.90;;;;;;7044078;27;20450;-68
2020/12/25 15:19:28;;;;;;;6.15;2.50;;;2.40;99.90;;;;;;7043320;27;20398;-69
2020/12/25 15:22:49;;;;;;;5.40;2.60;;;2.20;99.90;;;;;;7054119;27;20406;-68
2020/12/25 15:26:10;;;;;;;3.80;2.40;;;2.10;99.90;;;;;;7053151;27;20406;-69
2020/12/25 15:29:31;;;;;;;3.60;2.20;;;2.00;99.90;;;;;;7040256;27;20886;-70
2020/12/25 15:32:55;;;;;;;4.40;2.30;;;1.80;99.90;;;;;;7047402;27;20928;-67
2020/12/25 15:36:17;;;;;;;5.32;2.40;;;1.60;99.90;;;;;;7038802;27;20481;-68
2020/12/25 15:39:41;;;;;;;6.20;2.90;;;1.40;99.90;;;;;;7030281;27;20442;-67
2020/12/25 15:43:02;;;;;;;5.70;2.80;;;1.40;99.90;;;;;;7039521;27;20499;-67
2020/12/25 15:46:22;;;;;;;6.90;2.70;;;1.20;99.90;;;;;;7036997;27;20400;-68
2020/12/25 15:49:43;;;;;;;7.23;3.50;;;1.10;99.90;;;;;;7051736;27;20891;-68
2020/12/25 15:53:04;;;;;;;6.20;2.80;;;1.10;99.90;;;;;;7036062;27;20405;-69
2020/12/25 15:56:25;;;;;;;5.13;3.00;;;1.00;99.90;;;;;;7046606;27;20425;-68
2020/12/25 15:59:46;;;;;;;4.97;2.80;;;1.00;99.90;;;;;;7047721;27;20386;-69
2020/12/25 16:03:07;;;;;;;5.10;3.00;;;1.00;99.90;;;;;;7079795;27;20420;-69
2020/12/25 16:06:36;;;;;;;5.32;2.80;;;0.90;99.90;;;;;;7061532;27;20416;-68
2020/12/25 16:09:56;;;;;;;5.70;3.00;;;0.80;99.90;;;;;;7047137;27;20480;-69
2020/12/25 16:13:17;;;;;;;5.40;3.20;;;0.80;99.90;;;;;;7033815;27;20394;-69
2020/12/25 16:16:38;;;;;;;5.00;3.00;;;0.80;99.90;;;;;;7027635;27;20408;-69
2020/12/25 16:20:00;;;;;;;6.38;3.60;;;0.80;99.90;;;;;;7039279;27;20715;-68
2020/12/25 16:23:21;;;;;;;4.85;3.20;;;0.90;99.90;;;;;;7034721;27;20408;-67
2020/12/25 16:26:46;;;;;;;5.60;3.30;;;0.80;99.90;;;;;;7030656;27;20406;-67
2020/12/25 16:30:07;;;;;;;6.40;3.97;;;0.80;99.90;;;;;;7029773;27;20393;-67
2020/12/25 16:33:28;;;;;;;5.60;3.60;;;0.80;99.90;;;;;;7047590;27;20489;-68
2020/12/25 16:36:52;;;;;;;5.90;3.90;;;0.80;99.90;;;;;;7044677;27;20499;-67
2020/12/25 16:40:13;;;;;;;6.10;3.80;;;0.90;99.90;;;;;;7061810;27;20424;-69
2020/12/25 16:43:34;;;;;;;6.90;4.25;;;1.00;99.90;;;;;;7031714;27;20778;-69
2020/12/25 16:46:56;;;;;;;8.23;4.10;;;0.90;99.90;;;;;;7034630;27;20753;-71
2020/12/25 16:50:17;;;;;;;6.22;3.72;;;0.90;99.90;;;;;;7050039;27;20780;-70
2020/12/25 16:53:38;;;;;;;5.30;3.50;;;0.80;99.90;;;;;;7027552;27;20409;-67
2020/12/25 16:56:58;;;;;;;6.40;3.40;;;0.80;99.90;;;;;;7047068;27;20452;-68
2020/12/25 17:00:19;;;;;;;5.27;3.70;;;0.80;99.90;;;;;;7053844;27;20387;-67
2020/12/25 17:03:40;;;;;;;6.43;3.80;;;0.70;99.90;;;;;;7043802;27;20434;-69
2020/12/25 17:07:01;;;;;;;6.87;3.80;;;0.70;99.90;;;;;;7037245;27;20930;-67
2020/12/25 17:10:22;;;;;;;6.03;3.60;;;0.70;99.90;;;;;;7034940;27;20397;-69
2020/12/25 17:13:49;;;;;;;5.75;3.70;;;0.60;99.90;;;;;;7031050;27;20409;-68
2020/12/25 17:17:12;;;;;;;5.50;4.00;;;0.60;99.90;;;;;;7029681;27;20490;-68
2020/12/25 17:20:33;;;;;;;6.55;4.00;;;0.60;99.90;;;;;;7039236;27;20903;-68
2020/12/25 17:23:53;;;;;;;6.50;3.80;;;0.50;99.90;;;;;;7041645;27;20411;-69
2020/12/25 17:27:19;;;;;;;6.82;3.72;;;0.40;99.90;;;;;;7060092;27;20408;-69
2020/12/25 17:30:40;;;;;;;6.05;3.95;;;0.40;99.90;;;;;;7039971;27;20407;-69
2020/12/25 17:34:02;;;;;;;5.97;4.00;;;0.40;99.90;;;;;;7033573;28;20444;-69
2020/12/25 17:37:23;;;;;;;8.10;4.30;;;0.50;99.90;;;;;;7043296;27;20481;-69
2020/12/25 17:40:45;;;;;;;8.50;4.60;;;0.40;99.90;;;;;;7036821;27;20802;-70